Time;durP1;ratioP1;P1;durP2;ratioP2;P2;SDS_P1;SDS_P2;PMS_P1;PMS_P2;Temp;Humidity;BMP_temperature;BMP_pressure;BME280_temperature;BME280_humidity;BME280_pressure;Samples;Min_cycle;Max_cycle;Signal;HPM_P1;HPM_P2
2022/01/23 13:30:49;;;;;;;;;;;;;;;5.94;100.00;99635.03;4806979;29;19965;-69
2022/01/23 13:33:21;;;;;;;;;;;;;;;6.03;100.00;99629.47;4807345;29;20187;-69
2022/01/23 13:35:53;;;;;;;;;;;;;;;6.00;100.00;99624.56;4796335;29;20337;-68
2022/01/23 13:38:22;;;;;;;;;;;;;;;5.88;100.00;99619.75;4824428;29;19954;-68
2022/01/23 13:41:00;;;;;;;;;;;;;;;5.90;100.00;99628.53;4792493;29;19962;-68
2022/01/23 14:02:22;;;;;;;;;;;;;;;5.30;100.00;99633.50;4810691;29;19970;-67
2022/01/23 14:05:08;;;;;;;;;;;;;;;5.28;100.00;99633.03;4822572;29;20243;-67
2022/01/23 14:07:36;;;;;;;;;;;;;;;5.36;100.00;99623.03;4818398;29;20258;-67
2022/01/23 14:10:09;;;;;;;;;;;;;;;5.41;100.00;99617.31;4812932;29;19961;-68
2022/01/23 14:12:37;;;;;;;;;;;;;;;5.43;100.00;99606.72;4822147;29;19956;-68
2022/01/23 14:15:17;;;;;;;;;;;;;;;5.38;100.00;99602.13;4787903;29;19956;-67
2022/01/23 14:18:06;;;;;;;;;;;;;;;5.31;100.00;99608.19;4811713;29;19963;-68
2022/01/23 14:20:37;;;;;;;;;;;;;;;5.29;100.00;99604.13;4809026;29;19986;-67
2022/01/23 14:23:11;;;;;;;;;;;;;;;5.23;100.00;99597.94;4811315;29;19956;-69
2022/01/23 14:25:45;;;;;;;;;;;;;;;5.18;100.00;99597.34;4806986;29;19973;-68
2022/01/23 14:28:14;;;;;;;;;;;;;;;5.03;100.00;99590.38;4810101;29;19954;-68
2022/01/23 14:30:49;;;;;;;;;;;;;;;5.08;100.00;99592.13;4809542;29;19954;-68
2022/01/23 14:33:22;;;;;;;;;;;;;;;5.05;100.00;99576.97;4805945;29;19951;-68
2022/01/23 14:35:50;;;;;;;;;;;;;;;5.06;100.00;99577.81;4813081;29;19957;-69
2022/01/23 14:38:19;;;;;;;;;;;;;;;5.05;100.00;99565.91;4808123;29;19963;-69
2022/01/23 14:41:04;;;;;;;;;;;;;;;5.03;100.00;99567.38;4813691;29;19950;-69
2022/01/23 14:43:33;;;;;;;;;;;;;;;4.90;100.00;99571.97;4808603;29;19961;-69
2022/01/23 14:46:03;;;;;;;;;;;;;;;4.87;100.00;99569.03;4807049;29;20390;-69
2022/01/23 14:48:36;;;;;;;;;;;;;;;4.81;100.00;99567.59;4812076;29;19959;-68
2022/01/23 14:51:05;;;;;;;;;;;;;;;4.81;100.00;99564.81;4808797;29;20352;-68
2022/01/23 14:53:34;;;;;;;;;;;;;;;4.68;100.00;99569.38;4806799;29;19961;-69
2022/01/23 14:56:03;;;;;;;;;;;;;;;4.72;100.00;99566.78;4814881;29;19955;-69
2022/01/23 14:58:32;;;;;;;;;;;;;;;4.68;100.00;99557.50;4809178;29;20349;-69
2022/01/23 15:01:02;;;;;;;;;;;;;;;4.63;100.00;99556.53;4814301;29;19952;-69
2022/01/23 15:03:32;;;;;;;;;;;;;;;4.59;100.00;99563.88;4808657;29;19959;-69
2022/01/23 15:06:04;;;;;;;;;;;;;;;4.59;100.00;99551.97;4820575;29;20264;-68
2022/01/23 15:08:32;;;;;;;;;;;;;;;4.56;100.00;99556.22;4824749;29;19951;-69
2022/01/23 15:11:00;;;;;;;;;;;;;;;4.49;100.00;99555.91;4809862;29;20345;-69
2022/01/23 15:13:29;;;;;;;;;;;;;;;4.39;100.00;99553.47;4810068;29;19965;-69
2022/01/23 15:15:57;;;;;;;;;;;;;;;4.38;100.00;99551.81;4823169;29;20247;-69
2022/01/23 15:18:25;;;;;;;;;;;;;;;4.44;100.00;99553.28;4810208;29;19964;-68
2022/01/23 15:20:52;;;;;;;;;;;;;;;4.38;100.00;99560.13;4823291;29;19953;-69
2022/01/23 15:23:20;;;;;;;;;;;;;;;4.30;100.00;99555.44;4827578;29;20369;-69
2022/01/23 15:25:47;;;;;;;;;;;;;;;4.22;100.00;99555.41;4827713;29;20000;-69
2022/01/23 15:28:15;;;;;;;;;;;;;;;4.12;100.00;99547.44;4823105;29;20361;-69
2022/01/23 15:30:44;;;;;;;;;;;;;;;4.14;100.00;99548.72;4809689;29;19962;-69
2022/01/23 15:33:11;;;;;;;;;;;;;;;4.10;100.00;99553.31;4823250;29;19961;-68
2022/01/23 15:35:49;;;;;;;;;;;;;;;3.93;100.00;99550.50;4814685;29;19955;-68
2022/01/23 15:38:18;;;;;;;;;;;;;;;3.76;100.00;99556.03;4818067;29;20339;-69
2022/01/23 15:40:46;;;;;;;;;;;;;;;3.61;100.00;99546.22;4811356;29;20335;-69
2022/01/23 15:43:14;;;;;;;;;;;;;;;3.53;100.00;99547.00;4810230;29;19953;-68
2022/01/23 15:45:45;;;;;;;;;;;;;;;3.50;100.00;99541.28;4814369;29;19958;-68
2022/01/23 15:48:13;;;;;;;;;;;;;;;3.43;100.00;99539.00;4820694;29;20234;-68
2022/01/23 15:50:40;;;;;;;;;;;;;;;3.42;100.00;99542.09;4808860;29;19960;-69
2022/01/23 15:53:08;;;;;;;;;;;;;;;3.41;100.00;99548.75;4809132;29;19956;-69
2022/01/23 15:55:35;;;;;;;;;;;;;;;3.38;100.00;99541.09;4816740;29;19957;-69
2022/01/23 15:58:04;;;;;;;;;;;;;;;3.30;100.00;99543.53;4793621;29;20002;-69
2022/01/23 16:00:34;;;;;;;;;;;;;;;3.20;100.00;99543.81;4802365;29;19963;-69
2022/01/23 16:03:02;;;;;;;;;;;;;;;3.15;100.00;99559.75;4799412;29;19948;-69
2022/01/23 16:05:30;;;;;;;;;;;;;;;3.20;100.00;99565.13;4816243;29;20254;-69
2022/01/23 16:07:57;;;;;;;;;;;;;;;3.23;100.00;99565.28;4818940;29;19978;-69
2022/01/23 16:10:25;;;;;;;;;;;;;;;3.12;100.00;99563.13;4807379;29;19954;-69
2022/01/23 16:12:53;;;;;;;;;;;;;;;3.09;100.00;99566.53;4814625;29;19956;-68
2022/01/23 16:15:21;;;;;;;;;;;;;;;2.97;100.00;99569.88;4814820;29;19965;-69
2022/01/23 16:17:49;;;;;;;;;;;;;;;2.83;100.00;99563.63;4831694;29;19956;-69
2022/01/23 16:20:17;;;;;;;;;;;;;;;2.77;100.00;99562.13;4810071;29;20244;-69
2022/01/23 16:22:46;;;;;;;;;;;;;;;2.70;100.00;99567.28;4805653;29;19961;-68
2022/01/23 16:25:15;;;;;;;;;;;;;;;2.66;100.00;99564.31;4808745;29;19973;-69
2022/01/23 16:27:43;;;;;;;;;;;;;;;2.67;100.00;99565.16;4808793;29;20355;-68
2022/01/23 16:30:19;;;;;;;;;;;;;;;2.66;100.00;99572.59;4808868;29;19956;-68
2022/01/23 16:32:48;;;;;;;;;;;;;;;2.67;100.00;99578.94;4808821;29;20536;-69
2022/01/23 16:35:19;;;;;;;;;;;;;;;2.74;100.00;99586.81;4808808;29;19959;-69
2022/01/23 16:37:47;;;;;;;;;;;;;;;2.66;100.00;99585.63;4808726;29;19953;-69
2022/01/23 16:40:14;;;;;;;;;;;;;;;2.63;100.00;99583.47;4808636;29;19960;-69
2022/01/23 16:42:42;;;;;;;;;;;;;;;2.56;100.00;99588.63;4808152;29;19961;-68
2022/01/23 16:45:09;;;;;;;;;;;;;;;2.49;100.00;99585.50;4808640;29;19957;-68
2022/01/23 16:47:37;;;;;;;;;;;;;;;2.43;100.00;99583.97;4808076;29;19967;-68
2022/01/23 16:50:05;;;;;;;;;;;;;;;2.37;100.00;99582.50;4808548;29;19955;-68
2022/01/23 16:52:32;;;;;;;;;;;;;;;2.33;100.00;99582.28;4808731;29;19953;-68
2022/01/23 16:54:59;;;;;;;;;;;;;;;2.32;100.00;99574.31;4811508;29;19954;-69
2022/01/23 16:57:27;;;;;;;;;;;;;;;2.32;100.00;99579.84;4811872;29;19976;-69
2022/01/23 16:59:54;;;;;;;;;;;;;;;2.29;100.00;99577.72;4812115;29;19952;-69
2022/01/23 17:02:22;;;;;;;;;;;;;;;2.24;100.00;99575.06;4812027;29;19952;-69
2022/01/23 17:04:49;;;;;;;;;;;;;;;2.21;100.00;99578.44;4820901;29;19953;-69
2022/01/23 17:07:17;;;;;;;;;;;;;;;2.19;100.00;99577.94;4810435;29;19971;-69
2022/01/23 17:09:45;;;;;;;;;;;;;;;2.26;100.00;99570.88;4811584;29;19957;-69
2022/01/23 17:12:12;;;;;;;;;;;;;;;2.25;100.00;99573.94;4811030;29;19961;-68
2022/01/23 17:14:40;;;;;;;;;;;;;;;2.26;100.00;99568.09;4811614;29;19953;-68
2022/01/23 17:17:07;;;;;;;;;;;;;;;2.23;100.00;99565.16;4811158;29;20041;-68
2022/01/23 17:19:34;;;;;;;;;;;;;;;2.21;100.00;99570.16;4810502;29;19955;-68
2022/01/23 17:22:07;;;;;;;;;;;;;;;2.16;100.00;99562.81;4809882;29;19957;-68
2022/01/23 17:24:37;;;;;;;;;;;;;;;2.13;100.00;99566.19;4808229;29;19974;-69
2022/01/23 17:27:05;;;;;;;;;;;;;;;2.08;100.00;99569.06;4811348;29;19975;-69
2022/01/23 17:29:34;;;;;;;;;;;;;;;2.04;100.00;99565.31;4811495;29;19958;-69
2022/01/23 17:32:02;;;;;;;;;;;;;;;2.06;100.00;99567.75;4806918;29;19952;-68
2022/01/23 17:34:29;;;;;;;;;;;;;;;2.11;100.00;99564.88;4810774;29;20360;-68
2022/01/23 17:36:57;;;;;;;;;;;;;;;2.21;100.00;99562.72;4810305;29;20251;-68
2022/01/23 17:39:24;;;;;;;;;;;;;;;2.30;100.00;99560.81;4811286;29;19954;-68
2022/01/23 17:41:53;;;;;;;;;;;;;;;2.35;100.00;99559.88;4810498;29;19967;-68
2022/01/23 17:44:27;;;;;;;;;;;;;;;2.36;100.00;99567.88;4810219;29;19957;-69
2022/01/23 17:47:19;;;;;;;;;;;;;;;2.43;100.00;99567.41;4810611;29;20356;-69
2022/01/23 17:49:55;;;;;;;;;;;;;;;2.46;100.00;99566.78;4805505;29;19974;-69
2022/01/23 17:52:24;;;;;;;;;;;;;;;2.53;100.00;99565.22;4810876;29;19960;-69
2022/01/23 17:54:52;;;;;;;;;;;;;;;2.58;100.00;99565.09;4822311;29;19956;-68
2022/01/23 17:57:19;;;;;;;;;;;;;;;2.54;100.00;99568.81;4809652;29;19964;-68
2022/01/23 17:59:50;;;;;;;;;;;;;;;2.46;100.00;99566.78;4810438;29;19964;-69
2022/01/23 18:02:17;;;;;;;;;;;;;;;2.37;100.00;99568.69;4810082;29;20231;-69
2022/01/23 18:04:45;;;;;;;;;;;;;;;2.31;100.00;99579.03;4809494;29;19994;-68
2022/01/23 18:07:14;;;;;;;;;;;;;;;2.30;100.00;99574.63;4809629;29;20257;-68
2022/01/23 18:09:42;;;;;;;;;;;;;;;2.33;100.00;99574.00;4809247;29;19951;-69
2022/01/23 18:12:09;;;;;;;;;;;;;;;2.38;100.00;99575.81;4809367;29;20353;-69
2022/01/23 18:14:39;;;;;;;;;;;;;;;2.46;100.00;99575.09;4809708;29;19957;-69
2022/01/23 18:17:06;;;;;;;;;;;;;;;2.45;100.00;99579.78;4809525;29;19956;-68
2022/01/23 18:19:33;;;;;;;;;;;;;;;2.37;100.00;99585.25;4808117;29;20349;-68
2022/01/23 18:22:01;;;;;;;;;;;;;;;2.23;100.00;99587.22;4809356;29;20221;-68
2022/01/23 18:24:28;;;;;;;;;;;;;;;2.21;100.00;99597.75;4808548;29;19976;-68
2022/01/23 18:26:56;;;;;;;;;;;;;;;2.31;100.00;99595.59;4808800;29;19960;-68
2022/01/23 18:29:26;;;;;;;;;;;;;;;2.31;100.00;99600.28;4809481;29;19981;-68
2022/01/23 18:31:56;;;;;;;;;;;;;;;2.19;100.00;99605.53;4809117;29;20427;-68
2022/01/23 18:34:23;;;;;;;;;;;;;;;2.14;100.00;99609.22;4806905;29;19955;-69
2022/01/23 18:36:52;;;;;;;;;;;;;;;2.12;100.00;99605.97;4809754;29;19965;-68
2022/01/23 18:39:20;;;;;;;;;;;;;;;2.12;100.00;99607.91;4809561;29;19956;-68
2022/01/23 18:41:49;;;;;;;;;;;;;;;2.09;100.00;99609.34;4810428;29;19957;-69
2022/01/23 18:44:17;;;;;;;;;;;;;;;2.06;100.00;99607.19;4807243;29;19953;-69
2022/01/23 18:46:45;;;;;;;;;;;;;;;2.05;100.00;99600.06;4779622;29;20358;-68
2022/01/23 18:49:16;;;;;;;;;;;;;;;2.05;100.00;99600.06;4809670;29;20458;-69
2022/01/23 18:51:53;;;;;;;;;;;;;;;2.10;100.00;99601.88;4809399;29;19961;-68
2022/01/23 18:54:38;;;;;;;;;;;;;;;2.12;100.00;99605.16;4810128;29;19961;-68
2022/01/23 18:57:21;;;;;;;;;;;;;;;2.17;100.00;99602.28;4799172;29;19965;-68
2022/01/23 18:59:52;;;;;;;;;;;;;;;2.21;100.00;99601.34;4809166;29;19970;-69
2022/01/23 19:02:27;;;;;;;;;;;;;;;2.20;100.00;99607.97;4809997;29;19958;-69
2022/01/23 19:05:03;;;;;;;;;;;;;;;2.18;100.00;99601.97;4808490;29;19972;-68
2022/01/23 19:07:37;;;;;;;;;;;;;;;2.16;100.00;99595.13;4808627;29;19979;-68
2022/01/23 19:10:05;;;;;;;;;;;;;;;2.17;100.00;99605.03;4806199;29;19956;-68
2022/01/23 19:12:37;;;;;;;;;;;;;;;2.20;100.00;99607.19;4809639;29;20234;-68
2022/01/23 19:15:06;;;;;;;;;;;;;;;2.24;100.00;99610.94;4809110;29;19962;-68
2022/01/23 19:17:34;;;;;;;;;;;;;;;2.25;100.00;99610.63;4809234;29;20241;-69
2022/01/23 19:20:02;;;;;;;;;;;;;;;2.30;100.00;99602.22;4809502;29;19958;-69
2022/01/23 19:22:31;;;;;;;;;;;;;;;2.42;100.00;99605.25;4806031;29;20367;-69
2022/01/23 19:24:58;;;;;;;;;;;;;;;2.48;100.00;99611.47;4811112;29;19971;-69
2022/01/23 19:41:56;;;;;;;;;;;;;;;2.67;100.00;99617.63;4805705;29;19978;-69
2022/01/23 19:44:43;;;;;;;;;;;;;;;2.74;100.00;99626.28;4807362;29;19960;-68
2022/01/23 19:47:21;;;;;;;;;;;;;;;2.78;100.00;99632.81;4788644;29;19960;-68
